createdAt,value
2019-02-04T00:00:35.098Z,69.63
2019-02-04T00:03:05.862Z,70.05
2019-02-04T00:05:35.880Z,69.25
2019-02-04T00:08:04.816Z,69.38
2019-02-04T00:10:33.288Z,69.92
2019-02-04T00:13:01.998Z,69.81
2019-02-04T00:15:30.392Z,68.82
2019-02-04T00:17:58.822Z,69.58
2019-02-04T00:20:27.218Z,69.78
2019-02-04T00:22:55.657Z,70.74
2019-02-04T00:25:24.186Z,70.93
2019-02-04T00:27:52.900Z,71.01
2019-02-04T00:30:23.674Z,70.63
2019-02-04T00:32:52.095Z,70.29
2019-02-04T00:35:20.524Z,69.34
2019-02-04T00:37:49.364Z,70.67
2019-02-04T00:40:26.402Z,72.01
2019-02-04T00:42:56.459Z,72.69
2019-02-04T00:45:24.951Z,72.35
2019-02-04T00:47:53.581Z,72.54
2019-02-04T00:50:22.917Z,72.24
2019-02-04T00:52:51.387Z,72.36
2019-02-04T00:55:19.899Z,72.59
2019-02-04T00:57:48.352Z,72.05
2019-02-04T01:00:20.167Z,71.94
2019-02-04T01:02:48.838Z,70.42
2019-02-04T01:05:19.448Z,71.32
2019-02-04T01:07:49.992Z,71.90
2019-02-04T01:10:31.520Z,73.32
2019-02-04T01:13:00.151Z,74.32
2019-02-04T01:15:28.828Z,73.94
2019-02-04T01:17:57.270Z,74.00
2019-02-04T01:20:28.460Z,74.04
2019-02-04T01:22:57.490Z,73.98
2019-02-04T01:25:27.598Z,72.20
2019-02-04T01:27:56.079Z,71.20
2019-02-04T01:30:25.842Z,72.42
2019-02-04T01:32:54.343Z,71.82
2019-02-04T01:35:23.099Z,72.44
2019-02-04T01:38:27.602Z,73.02
2019-02-04T01:40:56.005Z,71.86
2019-02-04T01:43:24.434Z,73.04
2019-02-04T01:45:52.869Z,74.46
2019-02-04T01:48:21.299Z,72.73
2019-02-04T01:50:49.768Z,72.74
2019-02-04T01:53:18.206Z,71.36
2019-02-04T01:55:46.601Z,73.83
2019-02-04T01:58:15.038Z,74.85
2019-02-04T02:00:43.544Z,75.48
2019-02-04T02:03:11.948Z,76.26
2019-02-04T02:05:40.446Z,74.21
2019-02-04T02:08:08.949Z,73.20
2019-02-04T02:10:37.338Z,73.85
2019-02-04T02:13:05.745Z,71.81
2019-02-04T02:15:34.409Z,73.06
2019-02-04T02:18:02.814Z,73.56
2019-02-04T02:20:31.366Z,72.57
2019-02-04T02:22:59.849Z,72.20
2019-02-04T02:25:28.256Z,72.51
2019-02-04T02:27:56.684Z,73.12
2019-02-04T02:30:27.319Z,74.47
2019-02-04T02:32:55.744Z,76.42
2019-02-04T02:35:24.170Z,75.79
2019-02-04T02:37:52.722Z,74.77
2019-02-04T02:40:24.214Z,75.82
2019-02-04T02:42:52.608Z,76.95
2019-02-04T02:45:21.461Z,77.35
2019-02-04T02:47:49.978Z,77.83
2019-02-04T02:50:18.542Z,78.16
2019-02-04T02:52:46.982Z,77.67
2019-02-04T02:55:20.217Z,78.20
2019-02-04T02:57:48.970Z,77.35
2019-02-04T03:00:22.346Z,76.93
2019-02-04T03:02:50.785Z,76.43
2019-02-04T03:05:19.523Z,76.08
2019-02-04T03:07:48.028Z,76.35
2019-02-04T03:10:22.344Z,77.83
2019-02-04T03:12:51.015Z,77.77
2019-02-04T03:15:19.490Z,78.36
2019-02-04T03:17:52.138Z,77.70
2019-02-04T03:20:18.174Z,77.64
2019-02-04T03:22:46.589Z,78.18
2019-02-04T03:25:15.372Z,78.25
2019-02-04T03:27:44.159Z,79.06
2019-02-04T03:30:24.145Z,78.61
2019-02-04T03:32:52.632Z,78.93
2019-02-04T03:35:21.072Z,78.93
2019-02-04T03:37:52.198Z,78.55
2019-02-04T03:40:22.842Z,78.58
2019-02-04T03:42:51.343Z,78.70
2019-02-04T03:45:20.223Z,78.84
2019-02-04T03:47:48.892Z,78.80
2019-02-04T03:50:17.374Z,78.80
2019-02-04T03:52:45.836Z,78.26
2019-02-04T03:55:16.212Z,78.88
2019-02-04T03:57:44.690Z,78.96
2019-02-04T04:00:18.779Z,79.15
2019-02-04T04:02:47.236Z,78.74
2019-02-04T04:05:15.842Z,78.63
2019-02-04T04:07:44.661Z,78.10
2019-02-04T04:10:14.418Z,77.96
2019-02-04T04:12:42.932Z,78.41
2019-02-04T04:15:14.432Z,78.16
2019-02-04T04:17:42.936Z,77.83
2019-02-04T04:20:13.898Z,78.78
2019-02-04T04:22:42.307Z,79.90
2019-02-04T04:25:13.665Z,78.65
2019-02-04T04:27:42.082Z,79.14
2019-02-04T04:30:16.448Z,79.14
2019-02-04T04:32:44.866Z,79.67
2019-02-04T04:35:13.892Z,79.35
2019-02-04T04:37:42.388Z,79.88
2019-02-04T04:40:12.654Z,80.00
2019-02-04T04:42:41.092Z,80.11
2019-02-04T04:45:12.930Z,80.07
2019-02-04T04:47:41.412Z,79.76
2019-02-04T04:50:10.150Z,79.91
2019-02-04T04:52:38.548Z,80.25
2019-02-04T04:55:16.301Z,80.16
2019-02-04T04:57:44.694Z,80.00
2019-02-04T05:00:16.145Z,79.94
2019-02-04T05:02:44.860Z,79.77
2019-02-04T05:05:14.630Z,79.69
2019-02-04T05:07:43.592Z,79.69
2019-02-04T05:10:17.345Z,79.34
2019-02-04T05:12:45.783Z,79.40
2019-02-04T05:15:19.194Z,79.40
2019-02-04T05:17:47.660Z,79.23
2019-02-04T05:20:17.514Z,80.20
2019-02-04T05:22:45.980Z,80.20
2019-02-04T05:25:15.334Z,79.14
2019-02-04T05:27:43.980Z,79.82
2019-02-04T05:30:15.310Z,79.89
2019-02-04T05:32:43.789Z,79.79
2019-02-04T05:35:12.375Z,79.79
2019-02-04T05:37:40.799Z,79.95
2019-02-04T05:40:12.224Z,79.54
2019-02-04T05:42:40.706Z,79.90
2019-02-04T05:45:11.668Z,80.31
2019-02-04T05:47:40.148Z,78.72
2019-02-04T05:50:11.372Z,77.05
2019-02-04T05:52:39.879Z,78.75
2019-02-04T05:55:09.211Z,78.75
2019-02-04T05:57:37.971Z,78.66
2019-02-04T06:00:20.020Z,78.23
2019-02-04T06:02:48.468Z,79.32
2019-02-04T06:05:16.955Z,78.83
2019-02-04T06:07:45.375Z,78.92
2019-02-04T06:10:13.956Z,79.50
2019-02-04T06:12:42.372Z,80.18
2019-02-04T06:15:13.122Z,80.67
2019-02-04T06:17:41.566Z,80.67
2019-02-04T06:20:24.061Z,80.44
2019-02-04T06:22:52.948Z,79.62
2019-02-04T06:25:21.462Z,78.90
2019-02-04T06:27:49.882Z,78.81
2019-02-04T06:30:19.042Z,79.77
2019-02-04T06:32:47.672Z,80.69
2019-02-04T06:35:17.130Z,80.10
2019-02-04T06:37:47.040Z,80.41
2019-02-04T06:40:17.210Z,81.34
2019-02-04T06:42:45.746Z,81.12
2019-02-04T06:45:18.371Z,80.30
2019-02-04T06:47:46.950Z,80.30
2019-02-04T06:50:17.406Z,81.52
2019-02-04T06:52:45.924Z,80.74
2019-02-04T06:55:23.028Z,79.60
2019-02-04T06:57:51.535Z,81.15
2019-02-04T07:00:20.073Z,81.15
2019-02-04T07:02:48.614Z,80.11
2019-02-04T07:05:17.627Z,80.21
2019-02-04T07:07:46.100Z,80.94
2019-02-04T07:10:17.087Z,80.54
2019-02-04T07:12:45.528Z,80.77
2019-02-04T07:15:14.224Z,80.10
2019-02-04T07:17:42.690Z,80.46
2019-02-04T07:20:14.688Z,80.24
2019-02-04T07:22:43.143Z,79.50
2019-02-04T07:25:14.241Z,78.91
2019-02-04T07:27:42.748Z,78.91
2019-02-04T07:30:23.002Z,80.06
2019-02-04T07:32:55.014Z,80.34
2019-02-04T07:35:23.495Z,80.34
2019-02-04T07:37:51.966Z,80.83
2019-02-04T07:40:32.000Z,80.02
2019-02-04T07:43:00.564Z,79.45
2019-02-04T07:45:29.708Z,79.81
2019-02-04T07:47:58.206Z,79.81
2019-02-04T07:50:26.792Z,79.35
2019-02-04T07:52:55.354Z,80.06
2019-02-04T07:55:23.776Z,80.06
2019-02-04T07:57:52.216Z,78.79
2019-02-04T08:00:26.435Z,77.94
2019-02-04T08:02:55.018Z,77.69
2019-02-04T08:05:23.529Z,77.78
2019-02-04T08:07:52.001Z,77.49
2019-02-04T08:10:20.464Z,76.52
2019-02-04T08:13:00.517Z,75.59
2019-02-04T08:15:21.944Z,76.36
2019-02-04T08:17:50.469Z,74.78
2019-02-04T08:20:18.882Z,75.23
2019-02-04T08:22:47.364Z,75.02
2019-02-04T08:25:17.041Z,74.67
2019-02-04T08:27:45.593Z,75.32
2019-02-04T08:30:20.106Z,73.99
2019-02-04T08:32:48.578Z,74.37
2019-02-04T08:35:17.059Z,74.72
2019-02-04T08:37:45.640Z,74.81
2019-02-04T08:40:15.995Z,73.26
2019-02-04T08:42:44.438Z,73.49
2019-02-04T08:45:14.669Z,73.32
2019-02-04T08:47:43.198Z,73.06
2019-02-04T08:50:14.938Z,72.18
2019-02-04T08:52:43.350Z,72.40
2019-02-04T08:55:12.021Z,72.78
2019-02-04T08:57:40.592Z,71.87
2019-02-04T09:00:15.647Z,71.66
2019-02-04T09:02:44.137Z,71.86
2019-02-04T09:05:14.671Z,70.74
2019-02-04T09:07:43.850Z,71.10
2019-02-04T09:10:20.955Z,70.95
2019-02-04T09:12:49.770Z,70.34
2019-02-04T09:15:18.415Z,68.68
2019-02-04T09:17:46.954Z,69.61
2019-02-04T09:20:18.069Z,69.91
2019-02-04T09:22:47.208Z,68.56
2019-02-04T09:25:20.706Z,69.04
2019-02-04T09:27:49.588Z,67.03
2019-02-04T09:30:23.450Z,66.60
2019-02-04T09:32:52.051Z,66.36
2019-02-04T09:35:22.132Z,65.37
2019-02-04T09:37:50.634Z,63.39
2019-02-04T09:40:27.354Z,56.98
2019-02-04T09:42:55.939Z,54.01
2019-02-04T09:45:27.594Z,55.45
2019-02-04T09:47:54.676Z,55.47
2019-02-04T09:50:28.932Z,54.46
2019-02-04T09:52:57.442Z,57.55
2019-02-04T09:55:31.820Z,59.29
2019-02-04T09:58:00.238Z,61.74
2019-02-04T10:00:31.295Z,61.77
2019-02-04T10:02:59.731Z,61.35
2019-02-04T10:05:29.708Z,60.94
2019-02-04T10:07:58.356Z,59.59
2019-02-04T10:10:29.105Z,56.36
2019-02-04T10:12:57.634Z,54.87
2019-02-04T10:15:31.995Z,56.78
2019-02-04T10:18:00.485Z,57.11
2019-02-04T10:20:34.101Z,56.54
2019-02-04T10:22:59.215Z,57.15
2019-02-04T10:25:30.095Z,58.45
2019-02-04T10:27:58.683Z,57.65
2019-02-04T10:30:27.157Z,58.04
2019-02-04T10:32:55.603Z,55.66
2019-02-04T10:35:24.122Z,55.73
2019-02-04T10:37:52.958Z,57.41
2019-02-04T10:40:29.612Z,57.86
2019-02-04T10:42:58.068Z,59.15
2019-02-04T10:45:26.955Z,58.25
2019-02-04T10:47:55.496Z,53.42
2019-02-04T10:50:34.561Z,54.11
2019-02-04T10:53:03.112Z,54.75
2019-02-04T10:55:31.533Z,53.84
2019-02-04T10:58:00.043Z,49.66
2019-02-04T11:00:31.711Z,45.72
2019-02-04T11:03:00.264Z,47.27
2019-02-04T11:05:34.377Z,49.29
2019-02-04T11:08:02.830Z,47.40
2019-02-04T11:10:33.950Z,52.61
2019-02-04T11:13:08.620Z,54.73
2019-02-04T11:15:37.088Z,54.02
2019-02-04T11:18:06.441Z,53.14
2019-02-04T11:20:35.262Z,54.01
2019-02-04T11:23:04.720Z,54.91
2019-02-04T11:25:33.834Z,55.07
2019-02-04T11:28:02.564Z,54.56
2019-02-04T11:30:33.765Z,54.40
2019-02-04T11:33:02.308Z,52.79
2019-02-04T11:35:30.976Z,52.50
2019-02-04T11:37:59.446Z,50.89
2019-02-04T11:40:30.700Z,51.04
2019-02-04T11:42:59.106Z,50.10
2019-02-04T11:45:28.171Z,47.39
2019-02-04T11:47:56.979Z,45.81
2019-02-04T11:50:25.498Z,46.00
2019-02-04T11:52:53.911Z,45.91
2019-02-04T11:55:22.330Z,47.35
2019-02-04T11:57:51.003Z,46.25
2019-02-04T12:00:25.588Z,46.24
2019-02-04T12:02:55.455Z,46.73
2019-02-04T12:05:24.439Z,47.21
2019-02-04T12:07:53.331Z,46.42
2019-02-04T12:10:28.325Z,46.25
2019-02-04T12:12:57.976Z,46.98
2019-02-04T12:15:26.438Z,45.18
2019-02-04T12:17:54.946Z,46.05
2019-02-04T12:20:23.438Z,45.66
2019-02-04T12:22:51.882Z,44.47
2019-02-04T12:25:25.301Z,42.45
2019-02-04T12:27:54.545Z,40.82
2019-02-04T12:30:31.909Z,42.05
2019-02-04T12:33:01.256Z,42.02
2019-02-04T12:35:29.941Z,42.83
2019-02-04T12:37:58.456Z,41.03
2019-02-04T12:40:27.828Z,40.31
2019-02-04T12:42:56.472Z,39.13
2019-02-04T12:45:30.204Z,38.49
2019-02-04T12:48:00.817Z,40.56
2019-02-04T12:50:29.263Z,41.02
2019-02-04T12:52:57.689Z,42.86
2019-02-04T12:55:31.215Z,46.15
2019-02-04T12:58:00.014Z,45.23
2019-02-04T13:00:30.013Z,44.80
2019-02-04T13:02:58.636Z,38.21
2019-02-04T13:05:35.882Z,35.27
2019-02-04T13:08:05.532Z,34.86
2019-02-04T13:10:35.507Z,42.54
2019-02-04T13:13:04.491Z,45.74
2019-02-04T13:15:32.983Z,45.12
2019-02-04T13:18:01.461Z,44.45
2019-02-04T13:20:29.864Z,36.88
2019-02-04T13:22:58.671Z,35.29
2019-02-04T13:25:30.846Z,35.69
2019-02-04T13:27:59.624Z,32.75
2019-02-04T13:30:29.685Z,31.99
2019-02-04T13:32:58.580Z,34.73
2019-02-04T13:35:31.004Z,38.12
2019-02-04T13:37:58.969Z,35.85
2019-02-04T13:40:28.953Z,37.01
2019-02-04T13:42:57.683Z,37.11
2019-02-04T13:45:26.307Z,36.92
2019-02-04T13:47:55.074Z,41.12
2019-02-04T13:50:24.215Z,43.18
2019-02-04T13:52:53.305Z,41.01
2019-02-04T13:55:30.378Z,39.50
2019-02-04T13:57:58.841Z,39.67
2019-02-04T14:00:27.820Z,41.46
2019-02-04T14:02:59.526Z,42.88
2019-02-04T14:05:31.136Z,45.21
2019-02-04T14:07:58.535Z,45.68
2019-02-04T14:10:38.081Z,45.51
2019-02-04T14:13:07.355Z,45.50
2019-02-04T14:15:36.401Z,46.00
2019-02-04T14:18:06.105Z,45.50
2019-02-04T14:20:34.516Z,44.83
2019-02-04T14:23:02.996Z,45.00
2019-02-04T14:25:31.421Z,45.64
2019-02-04T14:27:59.899Z,45.90
2019-02-04T14:30:33.691Z,44.83
2019-02-04T14:33:02.253Z,45.24
2019-02-04T14:35:30.690Z,45.46
2019-02-04T14:37:59.247Z,45.75
2019-02-04T14:40:27.839Z,45.89
2019-02-04T14:42:59.873Z,45.84
2019-02-04T14:45:43.389Z,45.32
2019-02-04T14:48:23.075Z,46.55
2019-02-04T14:51:28.143Z,45.89
2019-02-04T14:54:08.777Z,45.91
2019-02-04T14:57:01.354Z,46.13
2019-02-04T14:59:30.754Z,46.29
2019-02-04T15:02:07.799Z,45.42
2019-02-04T15:04:41.894Z,45.96
2019-02-04T15:07:29.796Z,45.79
2019-02-04T15:10:04.004Z,46.53
2019-02-04T15:13:08.605Z,46.54
2019-02-04T15:15:56.678Z,46.52
2019-02-04T15:18:29.042Z,47.05
2019-02-04T15:21:15.612Z,46.96
2019-02-04T15:24:08.757Z,47.52
2019-02-04T15:26:51.941Z,48.01
2019-02-04T15:29:26.300Z,47.57
2019-02-04T15:32:09.294Z,47.44
2019-02-04T15:34:46.027Z,47.01
2019-02-04T15:37:26.355Z,46.99
2019-02-04T15:39:57.814Z,47.38
2019-02-04T15:42:50.654Z,46.95
2019-02-04T15:45:42.033Z,46.72
2019-02-04T15:48:11.905Z,46.69
2019-02-04T15:51:00.809Z,46.40
2019-02-04T15:53:29.259Z,46.80
2019-02-04T15:55:58.733Z,47.15
2019-02-04T15:58:27.512Z,47.02
2019-02-04T16:00:55.914Z,46.81
2019-02-04T16:03:24.417Z,47.26
2019-02-04T16:05:52.848Z,46.69
2019-02-04T16:08:21.352Z,47.66
2019-02-04T16:10:49.871Z,47.31
2019-02-04T16:13:18.311Z,48.10
2019-02-04T16:15:46.729Z,46.74
2019-02-04T16:18:15.141Z,46.98
2019-02-04T16:20:43.592Z,48.12
2019-02-04T16:23:11.997Z,48.29
2019-02-04T16:25:40.486Z,47.89
2019-02-04T16:28:09.069Z,48.01
2019-02-04T16:30:37.819Z,47.71
2019-02-04T16:33:06.299Z,48.36
2019-02-04T16:35:34.742Z,48.49
2019-02-04T16:38:03.180Z,49.90
2019-02-04T16:40:31.593Z,49.45
2019-02-04T16:43:00.129Z,49.53
2019-02-04T16:45:28.676Z,49.45
2019-02-04T16:47:57.144Z,48.70
2019-02-04T16:50:27.761Z,49.58
2019-02-04T16:52:57.086Z,49.53
2019-02-04T16:55:25.510Z,49.73
2019-02-04T16:57:54.616Z,50.28
2019-02-04T17:00:25.254Z,50.42
2019-02-04T17:02:54.167Z,50.43
2019-02-04T17:05:24.322Z,51.25
2019-02-04T17:07:52.921Z,51.41
2019-02-04T17:10:23.916Z,51.49
2019-02-04T17:12:52.480Z,51.81
2019-02-04T17:15:21.273Z,52.00
2019-02-04T17:17:49.768Z,53.40
2019-02-04T17:20:21.113Z,52.89
2019-02-04T17:22:49.607Z,53.50
2019-02-04T17:25:18.126Z,52.55
2019-02-04T17:27:46.585Z,53.54
2019-02-04T17:30:17.834Z,53.24
2019-02-04T17:32:46.460Z,53.25
2019-02-04T17:35:15.411Z,53.09
2019-02-04T17:37:43.942Z,52.90
2019-02-04T17:40:17.986Z,55.15
2019-02-04T17:42:47.308Z,55.08
2019-02-04T17:45:17.259Z,56.02
2019-02-04T17:47:47.366Z,55.64
2019-02-04T17:50:17.754Z,55.28
2019-02-04T17:52:46.423Z,55.24
2019-02-04T17:55:17.362Z,55.29
2019-02-04T17:57:45.942Z,56.12
2019-02-04T18:00:41.948Z,55.95
2019-02-04T18:03:10.520Z,56.86
2019-02-04T18:05:39.120Z,58.11
2019-02-04T18:08:08.011Z,57.49
2019-02-04T18:10:37.831Z,57.97
2019-02-04T18:13:06.420Z,58.77
2019-02-04T18:15:35.005Z,59.27
2019-02-04T18:18:03.654Z,59.61
2019-02-04T18:20:32.180Z,59.98
2019-02-04T18:23:01.771Z,58.71
2019-02-04T18:25:30.846Z,59.32
2019-02-04T18:27:59.518Z,58.85
2019-02-04T18:30:28.503Z,58.77
2019-02-04T18:32:58.262Z,59.98
2019-02-04T18:35:27.353Z,60.74
2019-02-04T18:37:57.585Z,61.36
2019-02-04T18:40:26.965Z,61.60
2019-02-04T18:42:56.591Z,61.27
2019-02-04T18:45:27.430Z,61.09
2019-02-04T18:47:56.283Z,61.42
2019-02-04T18:50:25.512Z,61.71
2019-02-04T18:52:54.273Z,62.33
2019-02-04T18:55:25.441Z,62.79
2019-02-04T18:57:54.131Z,62.99
2019-02-04T19:00:24.798Z,62.81
2019-02-04T19:02:53.369Z,63.59
2019-02-04T19:05:22.517Z,63.37
2019-02-04T19:07:52.870Z,64.12
2019-02-04T19:10:24.144Z,63.25
2019-02-04T19:12:52.828Z,63.28
2019-02-04T19:15:23.547Z,63.90
2019-02-04T19:17:53.503Z,63.94
2019-02-04T19:20:23.630Z,64.39
2019-02-04T19:22:52.277Z,64.89
2019-02-04T19:25:22.218Z,64.94
2019-02-04T19:27:52.411Z,63.85
2019-02-04T19:30:36.147Z,64.95
2019-02-04T19:33:05.207Z,65.13
2019-02-04T19:35:34.061Z,65.65
2019-02-04T19:38:02.662Z,65.72
2019-02-04T19:40:32.698Z,63.63
2019-02-04T19:43:01.273Z,60.61
2019-02-04T19:45:30.354Z,60.39
2019-02-04T19:48:03.127Z,60.68
2019-02-04T19:50:37.730Z,63.93
2019-02-04T19:53:07.147Z,65.27
2019-02-04T19:55:35.815Z,64.61
2019-02-04T19:58:06.012Z,65.04
2019-02-04T20:00:34.784Z,65.82
2019-02-04T20:03:09.652Z,66.35
2019-02-04T20:05:44.474Z,65.87
2019-02-04T20:08:13.269Z,65.75
2019-02-04T20:10:42.078Z,65.91
2019-02-04T20:13:12.649Z,66.76
2019-02-04T20:15:41.490Z,66.47
2019-02-04T20:18:10.367Z,67.37
2019-02-04T20:20:42.414Z,65.97
2019-02-04T20:23:10.295Z,64.90
2019-02-04T20:25:38.979Z,64.46
2019-02-04T20:28:08.459Z,66.08
2019-02-04T20:30:46.043Z,66.58
2019-02-04T20:33:13.764Z,66.81
2019-02-04T20:35:48.236Z,65.93
2019-02-04T20:38:18.730Z,65.98
2019-02-04T20:40:49.386Z,62.86
2019-02-04T20:43:17.945Z,62.19
2019-02-04T20:45:47.715Z,62.09
2019-02-04T20:48:16.467Z,62.34
2019-02-04T20:50:48.056Z,61.94
2019-02-04T20:53:18.375Z,62.59
2019-02-04T20:55:47.457Z,61.90
2019-02-04T20:58:16.176Z,65.33
2019-02-04T21:00:44.976Z,66.29
2019-02-04T21:03:13.686Z,64.77
2019-02-04T21:05:44.902Z,64.60
2019-02-04T21:08:13.769Z,64.78
2019-02-04T21:10:46.444Z,62.93
2019-02-04T21:13:15.075Z,62.96
2019-02-04T21:15:43.858Z,64.07
2019-02-04T21:18:13.404Z,65.97
2019-02-04T21:20:42.029Z,66.26
2019-02-04T21:23:11.086Z,66.76
2019-02-04T21:25:39.950Z,66.86
2019-02-04T21:28:08.671Z,67.07
2019-02-04T21:30:39.599Z,67.37
2019-02-04T21:33:09.341Z,66.58
2019-02-04T21:35:38.210Z,64.54
2019-02-04T21:38:06.838Z,63.95
2019-02-04T21:40:35.604Z,64.53
2019-02-04T21:43:07.379Z,63.25
2019-02-04T21:45:36.008Z,63.49
2019-02-04T21:48:04.937Z,63.29
2019-02-04T21:50:36.189Z,62.57
2019-02-04T21:53:05.597Z,62.16
2019-02-04T21:55:34.199Z,62.16
2019-02-04T21:58:02.854Z,63.52
2019-02-04T22:00:34.451Z,65.45
2019-02-04T22:03:02.882Z,66.81
2019-02-04T22:05:33.356Z,66.47
2019-02-04T22:08:02.255Z,64.61
2019-02-04T22:10:31.445Z,63.94
2019-02-04T22:13:00.848Z,63.14
2019-02-04T22:15:29.359Z,62.56
2019-02-04T22:17:57.903Z,63.23
2019-02-04T22:20:26.327Z,63.59
2019-02-04T22:22:55.717Z,62.87
2019-02-04T22:25:25.690Z,63.06
2019-02-04T22:27:54.140Z,62.80
2019-02-04T22:30:25.024Z,63.48
2019-02-04T22:32:53.603Z,61.86
2019-02-04T22:35:22.368Z,63.03
2019-02-04T22:37:50.851Z,62.23
2019-02-04T22:40:25.226Z,62.36
2019-02-04T22:42:54.081Z,62.09
2019-02-04T22:45:22.573Z,62.31
2019-02-04T22:47:51.056Z,61.84
2019-02-04T22:50:24.902Z,61.26
2019-02-04T22:52:53.485Z,61.22
2019-02-04T22:55:31.546Z,61.03
2019-02-04T22:57:52.312Z,62.06
2019-02-04T23:00:46.646Z,61.62
2019-02-04T23:03:16.385Z,61.66
2019-02-04T23:05:45.023Z,61.32
2019-02-04T23:08:13.499Z,61.96
2019-02-04T23:10:42.093Z,61.70
2019-02-04T23:13:10.577Z,61.82
2019-02-04T23:15:39.208Z,62.64
2019-02-04T23:18:08.406Z,62.06
2019-02-04T23:20:36.900Z,62.19
2019-02-04T23:23:05.990Z,62.85
2019-02-04T23:25:43.087Z,61.65
2019-02-04T23:28:05.370Z,63.55
2019-02-04T23:30:33.895Z,64.10
2019-02-04T23:33:02.776Z,64.26
2019-02-04T23:35:31.179Z,65.17
2019-02-04T23:37:59.619Z,65.48
2019-02-04T23:40:28.026Z,66.15
2019-02-04T23:42:56.425Z,65.31
2019-02-04T23:45:24.937Z,65.83
2019-02-04T23:47:53.356Z,66.31
2019-02-04T23:50:21.767Z,65.50
2019-02-04T23:52:50.189Z,64.77
2019-02-04T23:55:18.603Z,65.52
2019-02-04T23:57:47.040Z,66.59
